Time;durP1;ratioP1;P1;durP2;ratioP2;P2;SDS_P1;SDS_P2;PMS_P1;PMS_P2;Temp;Humidity;BMP_temperature;BMP_pressure;BME280_temperature;BME280_humidity;BME280_pressure;Samples;Min_cycle;Max_cycle;Signal;HPM_P1;HPM_P2
2021/06/12 00:00:53;;;;;;;19.10;17.87;;;20.50;99.90;;;;;;5012947;28;20477;-64
2021/06/12 00:03:20;;;;;;;18.07;17.00;;;20.50;99.90;;;;;;5012737;28;20477;-64
2021/06/12 00:05:46;;;;;;;18.30;17.30;;;20.50;99.90;;;;;;5012674;28;20840;-64
2021/06/12 00:08:13;;;;;;;18.30;17.10;;;20.50;99.90;;;;;;5012256;28;20485;-64
2021/06/12 00:10:40;;;;;;;18.53;17.33;;;20.50;99.90;;;;;;5012560;28;20484;-64
2021/06/12 00:13:07;;;;;;;18.00;16.90;;;20.50;99.90;;;;;;5012522;28;20445;-64
2021/06/12 00:15:35;;;;;;;17.83;16.83;;;20.50;99.90;;;;;;5012603;28;20478;-65
2021/06/12 00:18:01;;;;;;;18.10;16.90;;;20.50;99.90;;;;;;5012869;28;20442;-65
2021/06/12 00:20:31;;;;;;;18.27;17.20;;;20.50;99.90;;;;;;5012884;28;20447;-65
2021/06/12 00:22:58;;;;;;;19.00;17.57;;;20.50;99.90;;;;;;5012636;28;20438;-64
2021/06/12 00:25:26;;;;;;;19.23;18.03;;;20.40;99.90;;;;;;5012648;28;20450;-65
2021/06/12 00:27:54;;;;;;;18.43;17.33;;;20.40;99.90;;;;;;5011832;28;20536;-64
2021/06/12 00:30:21;;;;;;;17.27;16.27;;;20.40;99.90;;;;;;5012688;28;20465;-65
2021/06/12 00:32:47;;;;;;;18.17;16.97;;;20.30;99.90;;;;;;5012475;28;20951;-65
2021/06/12 00:35:14;;;;;;;20.70;19.30;;;20.20;99.90;;;;;;5012547;28;20460;-64
2021/06/12 00:37:42;;;;;;;19.67;18.47;;;20.10;99.90;;;;;;5012289;28;20446;-64
2021/06/12 00:40:11;;;;;;;18.07;17.17;;;20.10;99.90;;;;;;5012603;28;20453;-65
2021/06/12 00:42:38;;;;;;;19.10;17.90;;;20.10;99.90;;;;;;5012208;28;20477;-65
2021/06/12 00:45:06;;;;;;;20.40;19.10;;;20.10;99.90;;;;;;5012384;28;20484;-64
2021/06/12 00:47:32;;;;;;;21.27;19.67;;;20.10;99.90;;;;;;5012000;28;20482;-65
2021/06/12 00:49:59;;;;;;;20.07;18.40;;;20.10;99.90;;;;;;5012274;28;21032;-64
2021/06/12 00:52:25;;;;;;;19.83;18.63;;;20.10;99.90;;;;;;5011985;28;20469;-65
2021/06/12 00:54:53;;;;;;;20.50;18.80;;;20.10;99.90;;;;;;4993318;28;20537;-65
2021/06/12 00:57:20;;;;;;;21.20;19.67;;;20.00;99.90;;;;;;5012133;28;20963;-65
2021/06/12 00:59:46;;;;;;;19.30;18.07;;;20.00;99.90;;;;;;5011852;28;20442;-65
2021/06/12 01:02:13;;;;;;;22.27;20.67;;;19.90;99.90;;;;;;5011621;28;20496;-65
2021/06/12 01:04:39;;;;;;;21.00;19.50;;;19.80;99.90;;;;;;5012081;28;20445;-65
2021/06/12 01:07:06;;;;;;;20.40;18.80;;;19.70;99.90;;;;;;5011812;28;20450;-64
2021/06/12 01:09:32;;;;;;;20.77;19.27;;;19.60;99.90;;;;;;5011965;28;20489;-65
2021/06/12 01:12:09;;;;;;;22.40;20.60;;;19.60;99.90;;;;;;5011453;28;20470;-65
2021/06/12 01:14:39;;;;;;;20.37;18.77;;;19.50;99.90;;;;;;5011851;28;20508;-64
2021/06/12 01:17:10;;;;;;;20.70;19.17;;;19.50;99.90;;;;;;5011875;28;20504;-64
2021/06/12 01:20:20;;;;;;;21.93;20.10;;;19.50;99.90;;;;;;5011892;28;20468;-64
2021/06/12 01:23:02;;;;;;;20.97;19.37;;;19.50;99.90;;;;;;4959114;28;20447;-64
2021/06/12 01:25:39;;;;;;;20.10;18.63;;;19.50;99.90;;;;;;5006407;28;20496;-64
2021/06/12 01:28:35;;;;;;;20.80;19.30;;;19.60;99.90;;;;;;4992227;28;20497;-64
2021/06/12 01:31:04;;;;;;;20.77;19.07;;;19.70;99.90;;;;;;5000120;28;20470;-64
2021/06/12 01:33:31;;;;;;;20.13;18.83;;;19.70;99.90;;;;;;5011616;28;20500;-64
2021/06/12 01:36:01;;;;;;;20.67;18.87;;;19.90;99.90;;;;;;5011510;28;20458;-64
2021/06/12 01:38:30;;;;;;;21.90;20.20;;;20.00;99.90;;;;;;5011654;28;20939;-64
2021/06/12 01:40:59;;;;;;;21.70;20.20;;;20.00;99.90;;;;;;5011509;28;20477;-64
2021/06/12 01:43:26;;;;;;;27.63;23.50;;;20.10;99.90;;;;;;5011223;28;20453;-64
2021/06/12 01:45:53;;;;;;;25.10;23.10;;;20.10;99.90;;;;;;5011453;28;20453;-64
2021/06/12 01:48:22;;;;;;;24.30;22.40;;;20.10;99.90;;;;;;5011448;28;20478;-64
2021/06/12 01:50:49;;;;;;;22.40;20.73;;;20.10;99.90;;;;;;5011219;28;20539;-64
2021/06/12 01:53:17;;;;;;;21.77;20.13;;;20.20;99.90;;;;;;5011373;28;20441;-64
2021/06/12 01:55:45;;;;;;;21.53;20.03;;;20.30;99.90;;;;;;5011365;28;20577;-64
2021/06/12 01:58:22;;;;;;;21.67;19.77;;;20.30;99.90;;;;;;5011521;28;20504;-64
2021/06/12 02:00:48;;;;;;;18.93;17.73;;;20.30;99.90;;;;;;5011213;28;20843;-64
2021/06/12 02:03:16;;;;;;;20.23;18.73;;;20.30;99.90;;;;;;5011000;28;20450;-64
2021/06/12 02:05:44;;;;;;;20.27;18.87;;;20.30;99.90;;;;;;5011395;28;20450;-64
2021/06/12 02:08:13;;;;;;;19.20;18.10;;;20.20;99.90;;;;;;5010338;28;21034;-64
2021/06/12 02:10:41;;;;;;;19.50;18.20;;;20.20;99.90;;;;;;5010662;28;20466;-64
2021/06/12 02:13:09;;;;;;;20.03;18.50;;;20.20;99.90;;;;;;5011162;28;20446;-64
2021/06/12 02:15:37;;;;;;;19.83;18.30;;;20.20;99.90;;;;;;5011071;28;20450;-64
2021/06/12 02:18:05;;;;;;;20.40;18.67;;;20.20;99.90;;;;;;5011236;28;20450;-64
2021/06/12 02:20:33;;;;;;;20.37;18.73;;;20.30;99.90;;;;;;5010995;28;20769;-64
2021/06/12 02:23:04;;;;;;;20.47;18.73;;;20.30;99.90;;;;;;5010772;28;20453;-64
2021/06/12 02:25:30;;;;;;;21.97;20.40;;;20.20;99.90;;;;;;5011060;28;20457;-64
2021/06/12 02:28:02;;;;;;;22.07;20.47;;;20.20;99.90;;;;;;5011289;28;20486;-64
2021/06/12 02:30:31;;;;;;;22.50;20.50;;;20.20;99.90;;;;;;5012360;28;20465;-64
2021/06/12 02:33:01;;;;;;;19.63;18.43;;;20.20;99.90;;;;;;5014620;28;20442;-64
2021/06/12 02:35:28;;;;;;;21.33;19.73;;;20.10;99.90;;;;;;5014704;28;21058;-64
2021/06/12 02:37:54;;;;;;;23.67;21.77;;;20.10;99.90;;;;;;5014563;28;20442;-65
2021/06/12 02:40:22;;;;;;;22.43;20.50;;;20.10;99.90;;;;;;5014693;28;21153;-65
2021/06/12 02:42:48;;;;;;;24.90;22.83;;;20.10;99.90;;;;;;5014236;28;21025;-64
2021/06/12 02:45:16;;;;;;;23.07;21.30;;;20.20;99.90;;;;;;5014219;28;20449;-64
2021/06/12 02:47:47;;;;;;;23.13;21.33;;;20.20;99.90;;;;;;5014452;28;20445;-64
2021/06/12 02:50:14;;;;;;;24.10;22.00;;;20.20;99.90;;;;;;5014460;28;20999;-64
2021/06/12 02:52:43;;;;;;;22.73;20.93;;;20.10;99.90;;;;;;5014152;28;20499;-64
2021/06/12 02:55:12;;;;;;;22.83;21.17;;;20.00;99.90;;;;;;5014008;28;20454;-64
2021/06/12 02:57:44;;;;;;;22.73;20.43;;;19.90;99.90;;;;;;5014518;28;20863;-64
2021/06/12 03:00:12;;;;;;;22.70;21.03;;;19.90;99.90;;;;;;5014172;28;20940;-64
2021/06/12 03:02:40;;;;;;;24.23;22.30;;;19.80;99.90;;;;;;5013835;28;20460;-64
2021/06/12 03:05:14;;;;;;;24.53;22.83;;;19.80;99.90;;;;;;5013828;28;20450;-64
2021/06/12 03:07:41;;;;;;;24.07;22.20;;;19.80;99.90;;;;;;5013956;28;20442;-64
2021/06/12 03:10:09;;;;;;;23.47;21.50;;;19.70;99.90;;;;;;5014079;28;20854;-64
2021/06/12 03:12:36;;;;;;;20.03;18.63;;;19.70;99.90;;;;;;5013780;28;20462;-64
2021/06/12 03:15:06;;;;;;;21.23;19.73;;;19.70;99.90;;;;;;5013942;28;20456;-64
2021/06/12 03:17:33;;;;;;;24.53;22.37;;;19.70;99.90;;;;;;5013828;28;20505;-64
2021/06/12 03:20:00;;;;;;;21.90;20.40;;;19.70;99.90;;;;;;5013939;28;20438;-64
2021/06/12 03:22:27;;;;;;;21.17;19.60;;;19.70;99.90;;;;;;5013683;28;20857;-64
2021/06/12 03:24:53;;;;;;;22.53;20.80;;;19.70;99.90;;;;;;5013679;28;20504;-64
2021/06/12 03:27:21;;;;;;;20.80;19.27;;;19.70;99.90;;;;;;5013754;28;20508;-64
2021/06/12 03:29:47;;;;;;;20.63;19.23;;;19.60;99.90;;;;;;5013264;28;20481;-64
2021/06/12 03:32:15;;;;;;;21.80;20.00;;;19.70;99.90;;;;;;5013309;28;20786;-64
2021/06/12 03:34:42;;;;;;;21.00;19.33;;;19.70;99.90;;;;;;5013434;28;20442;-64
2021/06/12 03:37:09;;;;;;;21.67;20.07;;;19.70;99.90;;;;;;5013527;28;20449;-64
2021/06/12 03:39:35;;;;;;;20.37;18.87;;;19.70;99.90;;;;;;5013571;28;20974;-64
2021/06/12 03:42:02;;;;;;;21.70;20.30;;;19.70;99.90;;;;;;5013255;28;20469;-64
2021/06/12 03:44:28;;;;;;;21.07;19.67;;;19.60;99.90;;;;;;5013280;28;20445;-64
2021/06/12 03:46:56;;;;;;;20.17;18.77;;;19.70;99.90;;;;;;5012849;28;20442;-65
2021/06/12 03:49:24;;;;;;;21.80;20.20;;;19.70;99.90;;;;;;5013156;28;20482;-65
2021/06/12 03:51:52;;;;;;;22.73;20.90;;;19.60;99.90;;;;;;5013291;28;20540;-65
2021/06/12 03:54:19;;;;;;;21.70;19.90;;;19.60;99.90;;;;;;5013345;28;20473;-65
2021/06/12 03:56:45;;;;;;;22.20;20.47;;;19.60;99.90;;;;;;5013076;28;20445;-65
2021/06/12 03:59:12;;;;;;;21.97;20.27;;;19.60;99.90;;;;;;5013061;28;20496;-65
2021/06/12 04:01:38;;;;;;;23.77;21.80;;;19.60;99.90;;;;;;5012819;28;20847;-64
2021/06/12 04:04:06;;;;;;;21.77;20.13;;;19.60;99.90;;;;;;5013242;28;21001;-64
2021/06/12 04:06:33;;;;;;;21.77;20.00;;;19.60;99.90;;;;;;5013052;28;20931;-64
2021/06/12 04:08:59;;;;;;;22.77;21.13;;;19.60;99.90;;;;;;5012603;28;20998;-64
2021/06/12 04:11:26;;;;;;;23.93;22.00;;;19.60;99.90;;;;;;5013121;28;20519;-64
2021/06/12 04:13:52;;;;;;;25.37;23.33;;;19.60;99.90;;;;;;5013095;28;20481;-64
2021/06/12 04:16:18;;;;;;;24.60;22.40;;;19.70;99.90;;;;;;5012933;28;20453;-64
2021/06/12 04:18:45;;;;;;;22.83;21.03;;;19.70;99.90;;;;;;5012711;28;20448;-64
2021/06/12 04:21:11;;;;;;;25.70;23.07;;;19.70;99.90;;;;;;5012622;28;20477;-64
2021/06/12 04:23:39;;;;;;;24.63;22.43;;;19.70;99.90;;;;;;5012634;28;20450;-66
2021/06/12 04:26:05;;;;;;;25.80;23.50;;;19.60;99.90;;;;;;5012441;28;20449;-64
2021/06/12 04:28:31;;;;;;;23.10;21.30;;;19.60;99.90;;;;;;5012530;28;20847;-64
2021/06/12 04:30:58;;;;;;;22.80;20.60;;;19.60;99.90;;;;;;5012619;28;20469;-64
2021/06/12 04:33:24;;;;;;;22.63;20.70;;;19.50;99.90;;;;;;5012504;28;20815;-64
2021/06/12 04:35:50;;;;;;;23.37;21.43;;;19.50;99.90;;;;;;5012384;28;20451;-64
2021/06/12 04:38:16;;;;;;;22.70;21.07;;;19.50;99.90;;;;;;5012285;28;20807;-64
2021/06/12 04:40:44;;;;;;;20.87;19.40;;;19.50;99.90;;;;;;5011515;28;20477;-64
2021/06/12 04:43:12;;;;;;;22.63;20.80;;;19.50;99.90;;;;;;5012085;28;20446;-64
2021/06/12 04:45:39;;;;;;;22.97;21.37;;;19.60;99.90;;;;;;5012108;28;20466;-64
2021/06/12 04:48:07;;;;;;;23.37;21.37;;;19.70;99.90;;;;;;5012335;28;20434;-64
2021/06/12 04:50:36;;;;;;;20.97;19.40;;;19.70;99.90;;;;;;5011818;28;20446;-64
2021/06/12 04:53:03;;;;;;;23.57;21.60;;;19.80;99.90;;;;;;5011567;28;20974;-64
2021/06/12 04:55:29;;;;;;;22.57;20.63;;;20.00;99.90;;;;;;5012362;28;20809;-64
2021/06/12 04:57:57;;;;;;;23.57;21.73;;;20.10;99.90;;;;;;5012385;28;20508;-64
2021/06/12 05:00:24;;;;;;;23.33;21.70;;;20.20;99.90;;;;;;5011596;28;20450;-64
2021/06/12 05:02:50;;;;;;;23.47;21.43;;;20.30;99.90;;;;;;4995766;23;20484;-66
2021/06/12 05:05:16;;;;;;;23.97;21.97;;;20.40;99.90;;;;;;4963196;28;20440;-66
2021/06/12 05:07:42;;;;;;;24.13;22.43;;;20.50;99.90;;;;;;4972962;28;21023;-66
2021/06/12 05:10:10;;;;;;;21.40;20.07;;;20.60;99.90;;;;;;4972507;28;20877;-65
2021/06/12 05:12:37;;;;;;;26.10;24.10;;;20.70;99.90;;;;;;4971213;28;20475;-66
2021/06/12 05:15:06;;;;;;;23.43;21.57;;;20.80;99.90;;;;;;4953555;28;20487;-65
2021/06/12 05:17:32;;;;;;;25.10;23.10;;;21.00;99.90;;;;;;4954751;28;20452;-65
2021/06/12 05:19:59;;;;;;;24.07;22.17;;;20.90;99.90;;;;;;4965620;28;21043;-65
2021/06/12 05:22:26;;;;;;;23.90;22.20;;;20.90;99.90;;;;;;4972439;28;20530;-66
2021/06/12 05:24:52;;;;;;;24.13;22.20;;;20.90;99.90;;;;;;4972172;28;20448;-65
2021/06/12 05:27:19;;;;;;;22.47;20.87;;;20.70;99.90;;;;;;4953540;28;20544;-65
2021/06/12 05:29:46;;;;;;;23.00;21.40;;;20.70;99.90;;;;;;4962995;28;20476;-66
2021/06/12 05:32:14;;;;;;;22.60;21.20;;;20.70;99.90;;;;;;4972273;28;20559;-66
2021/06/12 05:34:40;;;;;;;20.60;19.20;;;20.70;99.90;;;;;;4972641;28;20510;-65
2021/06/12 05:37:07;;;;;;;20.90;19.37;;;20.70;99.90;;;;;;4953981;28;20449;-66
2021/06/12 05:39:33;;;;;;;19.33;18.17;;;20.70;99.90;;;;;;4953364;28;20452;-66
2021/06/12 05:42:00;;;;;;;18.10;17.07;;;20.60;99.90;;;;;;4969720;28;20471;-66
2021/06/12 05:44:27;;;;;;;19.40;17.50;;;20.50;99.90;;;;;;4960718;28;20456;-65
2021/06/12 05:46:53;;;;;;;18.50;17.40;;;20.50;99.90;;;;;;4969493;28;20488;-66
2021/06/12 05:49:21;;;;;;;19.90;18.60;;;20.60;99.90;;;;;;4972368;28;21084;-65
2021/06/12 05:51:48;;;;;;;20.37;18.80;;;20.60;99.90;;;;;;4961970;28;20472;-66
2021/06/12 05:54:15;;;;;;;19.37;18.30;;;20.60;99.90;;;;;;4953036;28;20961;-65
2021/06/12 05:56:42;;;;;;;18.37;17.37;;;20.70;99.90;;;;;;4967580;28;20459;-66
2021/06/12 05:59:08;;;;;;;19.30;18.20;;;20.80;99.90;;;;;;4972288;28;20452;-66
2021/06/12 06:01:34;;;;;;;19.20;17.63;;;20.90;99.90;;;;;;4971629;28;20864;-66
2021/06/12 06:04:01;;;;;;;19.07;17.77;;;21.10;99.90;;;;;;4972236;28;20447;-66
2021/06/12 06:06:28;;;;;;;17.73;16.73;;;21.10;99.90;;;;;;4963151;28;20453;-66
2021/06/12 06:08:54;;;;;;;18.07;17.07;;;21.10;99.90;;;;;;4957137;28;20866;-65
2021/06/12 06:11:21;;;;;;;18.17;16.97;;;21.00;99.90;;;;;;4957271;28;20480;-66
2021/06/12 06:13:47;;;;;;;18.77;17.80;;;21.00;99.90;;;;;;4956985;28;20449;-66
2021/06/12 06:16:14;;;;;;;18.43;17.33;;;21.00;99.90;;;;;;4966942;28;20957;-66
2021/06/12 06:18:41;;;;;;;18.33;17.27;;;21.00;99.90;;;;;;4976521;28;20448;-66
2021/06/12 06:21:09;;;;;;;18.20;17.30;;;21.00;99.90;;;;;;4957107;28;20477;-66
2021/06/12 06:23:37;;;;;;;17.90;17.00;;;21.20;99.90;;;;;;4956818;28;20448;-66
2021/06/12 06:26:03;;;;;;;17.87;17.07;;;21.20;99.90;;;;;;4965189;28;20816;-65
2021/06/12 06:28:30;;;;;;;18.73;17.70;;;21.20;99.90;;;;;;4975991;28;20877;-66
2021/06/12 06:30:57;;;;;;;18.40;17.50;;;21.30;99.90;;;;;;4966615;28;20456;-66
2021/06/12 06:33:24;;;;;;;19.70;18.60;;;21.50;99.90;;;;;;4956397;28;20460;-66
2021/06/12 06:35:52;;;;;;;18.83;17.83;;;21.50;99.90;;;;;;4964053;28;20459;-65
2021/06/12 06:38:18;;;;;;;19.30;18.20;;;21.50;99.90;;;;;;4975628;28;20448;-66
2021/06/12 06:40:46;;;;;;;19.00;18.10;;;21.60;99.90;;;;;;4975757;28;20451;-65
2021/06/12 06:43:13;;;;;;;18.57;17.57;;;21.90;99.90;;;;;;4975373;28;20455;-65
2021/06/12 06:45:39;;;;;;;19.73;18.67;;;22.00;99.90;;;;;;4970803;28;20536;-65
2021/06/12 06:48:06;;;;;;;20.40;19.20;;;22.00;99.90;;;;;;4955373;28;20504;-64
2021/06/12 06:50:32;;;;;;;20.67;19.43;;;21.90;99.90;;;;;;4956444;28;20456;-65
2021/06/12 06:52:59;;;;;;;21.60;20.40;;;22.00;99.90;;;;;;4955173;28;20480;-65
2021/06/12 06:55:26;;;;;;;22.90;21.30;;;22.20;99.90;;;;;;4958538;28;20443;-65
2021/06/12 06:57:54;;;;;;;21.20;20.20;;;22.40;99.90;;;;;;4967486;28;20461;-66
2021/06/12 07:00:23;;;;;;;22.57;21.30;;;22.40;99.90;;;;;;4970821;28;20445;-65
2021/06/12 07:02:49;;;;;;;22.80;21.37;;;22.30;99.90;;;;;;4972505;28;21018;-65
2021/06/12 07:05:16;;;;;;;24.50;22.50;;;22.20;99.90;;;;;;4955878;28;20453;-65
2021/06/12 07:07:42;;;;;;;24.23;22.67;;;22.10;99.90;;;;;;4969528;28;20522;-64
2021/06/12 07:10:09;;;;;;;24.17;22.87;;;21.80;99.90;;;;;;4966271;28;20563;-66
2021/06/12 07:12:35;;;;;;;25.70;24.10;;;21.80;99.90;;;;;;4955501;28;20994;-65
2021/06/12 07:15:04;;;;;;;24.97;23.47;;;22.00;99.90;;;;;;4967535;28;20443;-66
2021/06/12 07:17:30;;;;;;;25.93;24.23;;;22.10;99.90;;;;;;4974495;28;20456;-66
2021/06/12 07:19:57;;;;;;;25.20;23.63;;;22.00;99.90;;;;;;4974931;28;20522;-65
2021/06/12 07:22:23;;;;;;;26.20;24.60;;;22.30;99.90;;;;;;4974834;28;20483;-65
2021/06/12 07:24:50;;;;;;;24.90;23.50;;;22.20;99.90;;;;;;4965931;28;20457;-65
2021/06/12 07:27:16;;;;;;;27.67;25.77;;;22.30;99.90;;;;;;4955672;28;20452;-65
2021/06/12 07:29:43;;;;;;;25.90;24.20;;;22.40;99.90;;;;;;4955427;28;20484;-66
2021/06/12 07:32:11;;;;;;;29.57;27.57;;;22.30;99.90;;;;;;4955582;28;20626;-65
2021/06/12 07:34:37;;;;;;;30.93;28.93;;;22.00;99.90;;;;;;4955576;28;20453;-65
2021/06/12 07:37:04;;;;;;;29.23;27.40;;;21.90;99.90;;;;;;4955991;28;20508;-66
2021/06/12 07:39:31;;;;;;;30.70;28.70;;;21.80;99.90;;;;;;4957540;28;20448;-66
2021/06/12 07:41:57;;;;;;;30.30;28.30;;;22.00;99.90;;;;;;4968115;28;20483;-66
2021/06/12 07:44:24;;;;;;;28.10;26.33;;;22.20;99.90;;;;;;4955255;28;20452;-65
2021/06/12 07:46:50;;;;;;;31.40;29.30;;;22.50;99.90;;;;;;4966298;28;20460;-65
2021/06/12 07:49:18;;;;;;;32.83;30.80;;;22.70;99.90;;;;;;4974562;28;20484;-65
2021/06/12 07:51:45;;;;;;;30.83;28.63;;;22.70;99.90;;;;;;4972389;28;20906;-65
2021/06/12 07:54:12;;;;;;;31.10;28.63;;;22.80;99.90;;;;;;4955082;28;20934;-65
2021/06/12 07:56:38;;;;;;;32.17;30.17;;;22.80;99.90;;;;;;4955096;28;20466;-65
2021/06/12 07:59:04;;;;;;;31.40;29.30;;;22.40;99.90;;;;;;4955270;28;20452;-64
2021/06/12 08:01:32;;;;;;;30.67;28.70;;;22.40;99.90;;;;;;4965314;28;20480;-64
2021/06/12 08:03:59;;;;;;;30.67;28.77;;;22.70;99.90;;;;;;4973939;28;20452;-65
2021/06/12 08:06:27;;;;;;;32.57;30.50;;;22.80;99.90;;;;;;4974301;28;20865;-65
2021/06/12 08:08:53;;;;;;;34.90;32.50;;;23.00;99.90;;;;;;4974168;28;20484;-64
2021/06/12 08:11:19;;;;;;;33.10;30.87;;;22.90;99.90;;;;;;4972465;28;20471;-64
2021/06/12 08:13:45;;;;;;;31.57;29.63;;;22.70;99.90;;;;;;4973641;28;20452;-64
2021/06/12 08:16:11;;;;;;;31.73;29.63;;;22.40;99.90;;;;;;4973999;28;20452;-64
2021/06/12 08:18:38;;;;;;;32.27;30.20;;;22.20;99.90;;;;;;4967824;28;20440;-66
2021/06/12 08:21:05;;;;;;;33.20;30.83;;;22.10;99.90;;;;;;4955774;28;20448;-65
2021/06/12 08:23:34;;;;;;;31.60;29.50;;;21.90;99.90;;;;;;4960134;28;20463;-65
2021/06/12 08:26:00;;;;;;;34.47;32.23;;;21.80;99.90;;;;;;4958806;28;20452;-65
2021/06/12 08:28:28;;;;;;;32.80;30.80;;;21.70;99.90;;;;;;4953450;28;20449;-64
2021/06/12 08:30:56;;;;;;;33.30;31.03;;;21.30;99.90;;;;;;4961080;28;20953;-65
2021/06/12 08:33:22;;;;;;;32.50;30.37;;;21.20;99.90;;;;;;4965698;28;21022;-64
2021/06/12 08:35:48;;;;;;;32.77;30.67;;;21.30;99.90;;;;;;4962546;28;20472;-64
2021/06/12 08:38:15;;;;;;;34.40;32.27;;;21.30;99.90;;;;;;4971414;28;20455;-65
2021/06/12 08:40:43;;;;;;;34.70;32.40;;;21.20;99.90;;;;;;4972330;28;20456;-67
2021/06/12 08:43:10;;;;;;;32.50;30.00;;;21.00;99.90;;;;;;4972508;28;20463;-65
2021/06/12 08:45:36;;;;;;;31.33;29.37;;;21.00;99.90;;;;;;4973684;28;20817;-66
2021/06/12 08:48:03;;;;;;;30.37;28.27;;;21.10;99.90;;;;;;4973672;28;20879;-64
2021/06/12 08:50:31;;;;;;;32.97;30.87;;;21.00;99.90;;;;;;4973464;28;21027;-66
2021/06/12 08:52:58;;;;;;;31.30;29.27;;;21.10;99.90;;;;;;4973174;28;20465;-65
2021/06/12 08:55:25;;;;;;;34.77;32.30;;;21.20;99.90;;;;;;4973303;28;20891;-69
2021/06/12 08:57:52;;;;;;;32.63;30.60;;;21.30;99.90;;;;;;4973169;28;20452;-64
2021/06/12 09:00:20;;;;;;;30.30;28.50;;;21.60;99.90;;;;;;4973253;28;20984;-66
2021/06/12 09:03:10;;;;;;;28.57;26.77;;;21.90;99.90;;;;;;4973026;28;20472;-66
2021/06/12 09:05:45;;;;;;;32.10;29.80;;;22.40;99.90;;;;;;4973401;28;20887;-66
2021/06/12 09:08:13;;;;;;;30.63;28.50;;;22.80;99.90;;;;;;4973176;28;20538;-65
2021/06/12 09:10:54;;;;;;;32.47;30.47;;;23.20;99.90;;;;;;4972904;28;20479;-65
2021/06/12 09:13:53;;;;;;;30.43;28.50;;;23.60;99.90;;;;;;4972698;28;20460;-65
2021/06/12 09:16:32;;;;;;;31.37;29.40;;;23.90;99.90;;;;;;4972869;28;20447;-66
2021/06/12 09:19:04;;;;;;;29.43;27.73;;;24.10;99.90;;;;;;4973000;28;21030;-66
2021/06/12 09:21:33;;;;;;;29.73;27.17;;;24.70;99.90;;;;;;4972890;28;20533;-65
2021/06/12 09:24:00;;;;;;;32.60;30.20;;;25.10;99.90;;;;;;4972825;28;20444;-65
2021/06/12 09:26:47;;;;;;;27.83;26.20;;;25.20;99.80;;;;;;4972786;28;20507;-65
2021/06/12 09:29:18;;;;;;;29.53;27.83;;;25.60;98.70;;;;;;4972682;28;20545;-66
2021/06/12 09:31:47;;;;;;;28.90;27.27;;;26.00;97.20;;;;;;4972778;28;20479;-65
2021/06/12 09:34:15;;;;;;;27.20;25.50;;;26.30;96.60;;;;;;4972718;28;20448;-65
2021/06/12 09:36:42;;;;;;;28.23;26.57;;;26.00;95.00;;;;;;4972821;28;20455;-65
2021/06/12 09:39:12;;;;;;;30.63;28.63;;;25.90;95.00;;;;;;4974312;28;20440;-65
2021/06/12 09:41:42;;;;;;;28.90;27.00;;;26.00;95.70;;;;;;4976575;28;20463;-66
2021/06/12 09:44:09;;;;;;;30.53;28.63;;;25.60;95.40;;;;;;4978933;28;20451;-66
2021/06/12 09:46:45;;;;;;;30.83;28.93;;;25.70;95.80;;;;;;4979025;28;20448;-65
2021/06/12 09:49:16;;;;;;;29.23;27.43;;;25.50;95.90;;;;;;4964257;28;20890;-66
2021/06/12 09:52:01;;;;;;;28.30;26.60;;;25.30;96.70;;;;;;4959743;28;20480;-65
2021/06/12 09:54:34;;;;;;;27.60;26.00;;;25.70;96.50;;;;;;4959460;28;20455;-66
2021/06/12 09:57:01;;;;;;;28.63;26.80;;;25.70;96.00;;;;;;4963029;28;20442;-64
2021/06/12 09:59:27;;;;;;;32.67;30.13;;;25.50;95.70;;;;;;4972530;28;20444;-65
2021/06/12 10:01:53;;;;;;;30.50;28.70;;;25.10;96.60;;;;;;4978714;28;20537;-65
2021/06/12 10:04:21;;;;;;;31.73;29.73;;;25.00;97.30;;;;;;4978683;28;20448;-66
2021/06/12 10:06:48;;;;;;;29.87;27.90;;;25.10;97.30;;;;;;4978793;28;20448;-65
2021/06/12 10:09:14;;;;;;;29.90;27.87;;;24.90;97.30;;;;;;4978809;28;20562;-65
2021/06/12 10:11:41;;;;;;;31.07;28.83;;;24.90;97.80;;;;;;4978730;28;20475;-64
2021/06/12 10:14:07;;;;;;;31.23;29.30;;;24.90;98.10;;;;;;4978672;28;20448;-64
2021/06/12 10:16:38;;;;;;;30.50;28.40;;;24.90;98.30;;;;;;4978685;28;20962;-65
2021/06/12 10:19:06;;;;;;;32.03;29.67;;;24.40;98.60;;;;;;4978819;28;20904;-64
2021/06/12 10:21:34;;;;;;;31.30;29.03;;;23.90;99.30;;;;;;4978539;28;21025;-65
2021/06/12 10:24:06;;;;;;;32.73;30.40;;;23.60;99.90;;;;;;4978783;28;20454;-64
2021/06/12 10:26:33;;;;;;;32.40;30.20;;;23.90;99.90;;;;;;4978743;28;20447;-66
2021/06/12 10:29:00;;;;;;;31.60;29.50;;;24.20;99.90;;;;;;4978707;28;20487;-66
2021/06/12 10:31:30;;;;;;;30.77;28.70;;;24.40;99.90;;;;;;4961619;28;20469;-66
2021/06/12 10:33:57;;;;;;;32.17;29.83;;;24.00;99.90;;;;;;4959254;28;20448;-66
2021/06/12 10:36:25;;;;;;;31.07;28.90;;;23.80;99.90;;;;;;4960408;28;20456;-65
2021/06/12 10:38:54;;;;;;;31.50;29.20;;;23.60;99.90;;;;;;4959421;28;20440;-65
2021/06/12 10:41:22;;;;;;;31.93;29.60;;;23.40;99.90;;;;;;4959295;28;20510;-65
2021/06/12 10:43:50;;;;;;;31.90;29.10;;;23.40;99.90;;;;;;4959177;28;20539;-66
2021/06/12 10:46:20;;;;;;;31.17;28.97;;;23.90;99.90;;;;;;4965876;28;20448;-65
2021/06/12 10:48:52;;;;;;;32.43;30.03;;;24.30;99.90;;;;;;4976634;28;20557;-65
2021/06/12 10:51:43;;;;;;;31.83;29.50;;;24.90;98.60;;;;;;4972073;28;20475;-66
2021/06/12 10:54:25;;;;;;;31.37;29.27;;;25.80;96.70;;;;;;4955875;28;20441;-68
2021/06/12 10:56:53;;;;;;;31.53;29.33;;;26.20;94.80;;;;;;4956371;28;20453;-66
2021/06/12 10:59:41;;;;;;;30.53;28.47;;;26.50;94.30;;;;;;4956040;28;20437;-66
2021/06/12 11:02:12;;;;;;;31.83;29.83;;;26.90;93.00;;;;;;4985682;23;20506;-65
2021/06/12 11:04:47;;;;;;;29.77;27.87;;;27.00;91.10;;;;;;4974475;28;20456;-65
2021/06/12 11:07:25;;;;;;;32.07;29.77;;;26.70;90.10;;;;;;4974960;28;20455;-64
2021/06/12 11:10:11;;;;;;;29.00;27.07;;;26.60;88.90;;;;;;4974856;28;20490;-65
2021/06/12 11:12:38;;;;;;;30.40;28.20;;;26.60;89.40;;;;;;4975016;28;20828;-64
2021/06/12 11:15:08;;;;;;;31.07;28.97;;;27.30;85.80;;;;;;4956683;28;20460;-64
2021/06/12 11:17:34;;;;;;;32.60;30.20;;;27.30;82.30;;;;;;4955537;28;20448;-64
2021/06/12 11:20:27;;;;;;;30.47;28.27;;;28.00;79.40;;;;;;4955513;28;20441;-65
2021/06/12 11:22:55;;;;;;;31.67;29.37;;;28.20;78.10;;;;;;4955490;28;20475;-64
2021/06/12 11:25:46;;;;;;;32.10;30.00;;;28.00;72.90;;;;;;4974157;28;20459;-65
2021/06/12 11:28:32;;;;;;;30.77;28.47;;;27.10;73.70;;;;;;4955410;28;20507;-65
2021/06/12 11:31:39;;;;;;;32.07;29.87;;;25.90;78.10;;;;;;4955253;28;20447;-64
2021/06/12 11:34:20;;;;;;;29.47;27.47;;;24.60;85.40;;;;;;4955477;28;20524;-65
2021/06/12 11:36:48;;;;;;;31.60;29.30;;;24.10;90.80;;;;;;4955244;28;20444;-65
2021/06/12 11:39:15;;;;;;;32.80;30.33;;;23.90;91.70;;;;;;4955047;28;20444;-65
2021/06/12 11:41:43;;;;;;;28.27;26.37;;;23.60;92.40;;;;;;4955062;28;20473;-64
2021/06/12 11:44:09;;;;;;;30.53;28.10;;;23.60;94.00;;;;;;4964883;28;20456;-64
2021/06/12 11:46:39;;;;;;;30.03;27.67;;;24.00;94.50;;;;;;4974276;28;20818;-64
2021/06/12 11:49:10;;;;;;;29.77;27.73;;;24.40;93.90;;;;;;4974310;28;20490;-64
2021/06/12 11:51:39;;;;;;;32.10;29.50;;;24.60;92.90;;;;;;4960715;28;20476;-63
2021/06/12 11:54:08;;;;;;;31.50;29.20;;;24.50;92.50;;;;;;4963305;28;20539;-64
2021/06/12 11:56:36;;;;;;;30.17;27.97;;;24.20;92.30;;;;;;4973508;28;20455;-65
2021/06/12 11:59:05;;;;;;;31.70;29.20;;;23.90;93.10;;;;;;4974262;28;20502;-64
2021/06/12 12:01:43;;;;;;;29.73;27.63;;;23.90;93.10;;;;;;4962053;28;20449;-64
2021/06/12 12:04:12;;;;;;;32.33;29.93;;;24.40;92.50;;;;;;4953743;28;20476;-64
2021/06/12 12:06:44;;;;;;;32.17;29.63;;;24.90;91.20;;;;;;4955689;28;20449;-66
2021/06/12 12:09:10;;;;;;;31.03;28.83;;;25.20;89.00;;;;;;4954413;28;20473;-65
2021/06/12 12:11:36;;;;;;;32.60;30.30;;;25.70;87.00;;;;;;4955458;28;20468;-62
2021/06/12 12:14:05;;;;;;;32.77;30.20;;;25.60;83.30;;;;;;4954311;28;20456;-64
2021/06/12 12:16:32;;;;;;;29.43;27.40;;;24.90;85.50;;;;;;4961465;28;20823;-65
2021/06/12 12:19:00;;;;;;;26.70;24.47;;;24.50;88.10;;;;;;4973693;28;20504;-65
2021/06/12 12:21:35;;;;;;;24.03;22.63;;;23.80;87.50;;;;;;4959316;28;20464;-64
2021/06/12 12:24:03;;;;;;;27.40;25.53;;;23.50;90.10;;;;;;4954154;28;20446;-64
2021/06/12 12:26:30;;;;;;;28.63;26.53;;;23.60;90.80;;;;;;4954269;28;20455;-66
2021/06/12 12:28:58;;;;;;;27.40;25.67;;;25.80;90.10;;;;;;4954142;28;20448;-65
2021/06/12 12:31:27;;;;;;;24.07;22.67;;;28.50;72.20;;;;;;4967159;28;20953;-65
2021/06/12 12:33:55;;;;;;;23.67;21.90;;;28.50;62.50;;;;;;4971534;28;20564;-65
2021/06/12 12:36:22;;;;;;;20.73;19.73;;;28.80;62.20;;;;;;4973465;28;20813;-64